Time;durP1;ratioP1;P1;durP2;ratioP2;P2;SDS_P1;SDS_P2;PMS_P1;PMS_P2;Temp;Humidity;BMP_temperature;BMP_pressure;BME280_temperature;BME280_humidity;BME280_pressure;Samples;Min_cycle;Max_cycle;Signal;HPM_P1;HPM_P2
2022/12/03 00:00:48;;;;;;;21.90;13.77;;;;;;;-0.12;100.00;92791.88;2123018;27;20023;-77
2022/12/03 00:01:49;;;;;;;22.08;13.68;;;;;;;-0.12;100.00;92793.75;2122703;27;20043;-76
2022/12/03 00:02:50;;;;;;;21.95;14.13;;;;;;;-0.20;100.00;92792.88;2131480;27;20109;-77
2022/12/03 00:03:51;;;;;;;25.42;15.50;;;;;;;-0.12;100.00;92791.13;2139897;27;20693;-77
2022/12/03 00:04:52;;;;;;;25.70;15.90;;;;;;;-0.13;100.00;92795.63;2139742;27;20026;-79
2022/12/03 00:05:53;;;;;;;21.00;15.07;;;;;;;-0.07;100.00;92793.44;2125293;27;20037;-76
2022/12/03 00:06:54;;;;;;;23.55;15.98;;;;;;;-0.07;100.00;92793.44;2114173;28;20039;-78
2022/12/03 00:07:55;;;;;;;26.15;17.00;;;;;;;-0.02;100.00;92791.25;2122848;27;20027;-78
2022/12/03 00:08:56;;;;;;;26.08;15.93;;;;;;;-0.03;100.00;92788.97;2131497;27;20062;-76
2022/12/03 00:09:57;;;;;;;29.63;17.52;;;;;;;-0.01;100.00;92795.38;2131591;27;20014;-77
2022/12/03 00:10:58;;;;;;;22.95;15.05;;;;;;;-0.01;100.00;92789.38;2121872;27;20054;-77
2022/12/03 00:11:59;;;;;;;27.50;16.58;;;;;;;-0.13;100.00;92795.63;2116373;27;20035;-76
2022/12/03 00:13:00;;;;;;;22.67;16.00;;;;;;;-0.07;100.00;92793.44;2113854;28;20065;-76
2022/12/03 00:14:03;;;;;;;24.38;15.60;;;;;;;-0.09;100.00;92785.91;2107433;27;20035;-79
2022/12/03 00:15:05;;;;;;;23.08;14.15;;;;;;;-0.04;100.00;92797.97;2114289;28;20027;-77
2022/12/03 00:16:07;;;;;;;21.88;14.75;;;;;;;-0.09;100.00;92798.25;2113524;28;20072;-78
2022/12/03 00:17:08;;;;;;;21.80;14.95;;;;;;;-0.04;100.00;92797.97;2113442;27;20044;-76
2022/12/03 00:18:09;;;;;;;23.42;15.85;;;;;;;-0.07;100.00;92794.19;2113829;28;20027;-75
2022/12/03 00:19:09;;;;;;;24.90;15.65;;;;;;;-0.06;100.00;92793.06;2122206;27;20042;-75
2022/12/03 00:20:18;;;;;;;25.45;16.08;;;;;;;-0.10;100.00;92796.75;2131512;27;20052;-77
2022/12/03 00:21:18;;;;;;;21.20;14.88;;;;;;;-0.12;100.00;92799.75;2122566;27;20049;-77
2022/12/03 00:22:19;;;;;;;20.00;14.38;;;;;;;-0.02;100.00;92801.00;2122786;27;20031;-76
2022/12/03 00:23:20;;;;;;;21.00;14.38;;;;;;;0.02;100.00;92801.03;2131264;27;20018;-78
2022/12/03 00:24:21;;;;;;;19.85;13.52;;;;;;;-0.01;100.00;92800.63;2131257;27;20118;-76
2022/12/03 00:25:22;;;;;;;21.27;14.23;;;;;;;-0.06;100.00;92795.69;2131501;27;20753;-76
2022/12/03 00:26:24;;;;;;;20.00;14.27;;;;;;;-0.10;100.00;92799.38;2133322;27;20499;-75
2022/12/03 00:27:24;;;;;;;21.17;14.20;;;;;;;-0.12;100.00;92802.38;2124651;27;20019;-74
2022/12/03 00:28:25;;;;;;;21.98;14.50;;;;;;;-0.11;100.00;92800.50;2122699;27;20072;-75
2022/12/03 00:29:26;;;;;;;20.90;14.15;;;;;;;-0.13;100.00;92803.50;2122491;27;20035;-75
2022/12/03 00:30:27;;;;;;;19.77;13.68;;;;;;;-0.03;100.00;92805.50;2113881;28;20030;-75
2022/12/03 00:31:28;;;;;;;18.77;13.75;;;;;;;-0.03;100.00;92799.50;2122868;27;20027;-75
2022/12/03 00:32:29;;;;;;;19.63;14.00;;;;;;;0.03;100.00;92799.94;2140338;27;20025;-75
2022/12/03 00:33:30;;;;;;;21.98;14.45;;;;;;;-0.01;100.00;92799.88;2130798;27;20484;-75
2022/12/03 00:34:31;;;;;;;21.23;14.70;;;;;;;-0.09;100.00;92793.78;2130097;27;20110;-75
2022/12/03 00:35:32;;;;;;;21.95;15.02;;;;;;;-0.05;100.00;92796.44;2118958;27;20434;-75
2022/12/03 00:36:33;;;;;;;20.75;14.40;;;;;;;0.02;100.00;92798.41;2105597;28;20071;-75
2022/12/03 00:37:34;;;;;;;23.17;14.95;;;;;;;-0.04;100.00;92796.09;2122393;27;20024;-75
2022/12/03 00:38:35;;;;;;;20.80;14.70;;;;;;;-0.09;100.00;92793.78;2122429;27;20062;-75
2022/12/03 00:39:36;;;;;;;21.88;14.18;;;;;;;0.08;100.00;92803.00;2122448;27;20062;-75
2022/12/03 00:40:37;;;;;;;23.98;14.77;;;;;;;-0.03;100.00;92791.59;2133509;27;20049;-75
2022/12/03 00:41:38;;;;;;;20.08;14.43;;;;;;;0.06;100.00;92799.22;2122208;27;20117;-75
2022/12/03 00:42:39;;;;;;;22.00;15.25;;;;;;;0.02;100.00;92795.78;2122164;27;20030;-75
2022/12/03 00:43:40;;;;;;;20.48;13.30;;;;;;;0.03;100.00;92795.44;2131642;27;20065;-75
2022/12/03 00:44:41;;;;;;;24.15;14.73;;;;;;;-0.07;100.00;92803.94;2131559;27;20034;-75
2022/12/03 00:45:42;;;;;;;21.23;14.32;;;;;;;-0.02;100.00;92801.75;2131139;27;20460;-75
2022/12/03 00:46:43;;;;;;;21.98;14.73;;;;;;;-0.04;100.00;92798.72;2130830;27;20034;-75
2022/12/03 00:47:44;;;;;;;19.33;13.93;;;;;;;0.02;100.00;92796.53;2122086;27;20110;-75
2022/12/03 00:48:45;;;;;;;22.88;14.00;;;;;;;0.04;100.00;92796.19;2122131;27;20039;-75
2022/12/03 00:49:46;;;;;;;21.02;14.48;;;;;;;-0.05;100.00;92796.44;2131504;27;20049;-75
2022/12/03 00:50:47;;;;;;;22.23;14.85;;;;;;;-0.01;100.00;92802.50;2130969;27;20406;-75
2022/12/03 00:51:48;;;;;;;24.35;15.52;;;;;;;0.06;100.00;92799.97;2130913;27;20022;-75
2022/12/03 00:52:49;;;;;;;23.95;15.02;;;;;;;0.12;100.00;92800.41;2131308;27;20113;-76
2022/12/03 00:53:50;;;;;;;20.50;14.10;;;;;;;0.04;100.00;92796.94;2131601;27;20026;-76
2022/12/03 00:54:51;;;;;;;18.48;12.95;;;;;;;-0.03;100.00;92800.25;2131501;27;20038;-76
2022/12/03 00:55:52;;;;;;;22.23;14.30;;;;;;;-0.08;100.00;92802.44;2130806;27;20037;-76
2022/12/03 00:56:53;;;;;;;23.08;13.45;;;;;;;-0.07;100.00;92806.56;2121257;27;20023;-76
2022/12/03 00:57:54;;;;;;;22.30;15.25;;;;;;;-0.10;100.00;92807.25;2121712;27;20019;-76
2022/12/03 00:58:55;;;;;;;20.80;14.20;;;;;;;-0.11;100.00;92805.75;2131217;27;20026;-76
2022/12/03 00:59:56;;;;;;;21.63;13.95;;;;;;;-0.10;100.00;92802.00;2131591;27;20027;-77
2022/12/03 01:00:57;;;;;;;19.65;13.95;;;;;;;-0.13;100.00;92800.09;2133732;27;20408;-76
2022/12/03 01:01:58;;;;;;;22.70;13.90;;;;;;;-0.14;100.00;92801.97;2139989;27;20030;-76
2022/12/03 01:02:59;;;;;;;20.05;14.48;;;;;;;-0.16;100.00;92808.69;2139037;27;20046;-76
2022/12/03 01:04:00;;;;;;;23.42;14.98;;;;;;;-0.10;100.00;92802.00;2130379;27;20023;-76
2022/12/03 01:05:01;;;;;;;20.55;13.82;;;;;;;-0.11;100.00;92806.50;2121832;27;20114;-76
2022/12/03 01:06:02;;;;;;;23.38;14.65;;;;;;;-0.15;100.00;92800.44;2115056;27;20114;-76
2022/12/03 01:07:03;;;;;;;22.42;15.13;;;;;;;-0.18;100.00;92805.66;2122437;27;20069;-76
2022/12/03 01:08:04;;;;;;;22.65;15.15;;;;;;;-0.19;100.00;92806.78;2122528;27;20031;-76
2022/12/03 01:09:05;;;;;;;21.70;14.85;;;;;;;-0.20;100.00;92806.03;2122361;27;20126;-75
2022/12/03 01:10:07;;;;;;;23.08;14.23;;;;;;;-0.15;100.00;92797.81;2131055;27;20030;-75
2022/12/03 01:11:36;;;;;;;21.05;14.00;;;;;;;-0.20;100.00;92808.66;2121731;27;20026;-75
2022/12/03 01:12:29;;;;;;;22.02;14.32;;;;;;;-0.34;100.00;92803.22;2116474;27;20388;-75
2022/12/03 01:13:30;;;;;;;20.98;13.80;;;;;;;-0.26;100.00;92807.44;2113496;28;20063;-75
2022/12/03 01:14:30;;;;;;;20.20;14.07;;;;;;;-0.28;100.00;92804.41;2113767;28;20031;-75
2022/12/03 01:15:31;;;;;;;21.88;14.05;;;;;;;-0.15;100.00;92804.94;2121947;27;20384;-75
2022/12/03 01:16:33;;;;;;;19.40;13.60;;;;;;;-0.23;100.00;92804.09;2121793;27;20042;-75
2022/12/03 01:17:34;;;;;;;22.73;14.18;;;;;;;-0.13;100.00;92811.38;2121919;27;20695;-76
2022/12/03 01:18:35;;;;;;;19.13;12.95;;;;;;;-0.16;100.00;92808.69;2122781;27;20072;-75
2022/12/03 01:19:37;;;;;;;19.13;13.95;;;;;;;-0.27;100.00;92814.53;2122056;27;20457;-75
2022/12/03 01:20:38;;;;;;;19.25;13.48;;;;;;;-0.14;100.00;92817.72;2122103;27;20506;-75
2022/12/03 01:21:39;;;;;;;20.98;13.60;;;;;;;-0.28;100.00;92814.91;2124446;27;20039;-76
2022/12/03 01:22:40;;;;;;;22.25;14.98;;;;;;;-0.23;100.00;92805.97;2130831;27;20030;-76
2022/12/03 01:23:40;;;;;;;17.75;13.25;;;;;;;-0.29;100.00;92808.91;2131001;27;20034;-76
2022/12/03 01:24:41;;;;;;;20.80;13.60;;;;;;;-0.19;100.00;92806.78;2131242;27;20447;-76
2022/12/03 01:25:42;;;;;;;20.63;13.57;;;;;;;-0.23;100.00;92808.59;2131241;27;20022;-76
2022/12/03 01:26:44;;;;;;;18.98;13.00;;;;;;;-0.27;100.00;92806.66;2130081;27;20029;-75
2022/12/03 01:27:44;;;;;;;18.60;13.30;;;;;;;-0.24;100.00;92809.72;2131303;27;20030;-76
2022/12/03 01:28:45;;;;;;;19.92;13.88;;;;;;;-0.15;100.00;92808.34;2131424;27;20041;-76
2022/12/03 01:29:46;;;;;;;20.17;13.60;;;;;;;-0.12;100.00;92805.00;2130226;27;20018;-76
2022/12/03 01:32:18;;;;;;;21.08;12.85;;;;;;;-0.19;100.00;92810.16;2091956;28;20541;-76
2022/12/03 01:33:19;;;;;;;18.80;11.80;;;;;;;-0.14;100.00;92803.84;2114042;28;20104;-76
2022/12/03 01:34:20;;;;;;;17.88;12.30;;;;;;;-0.06;100.00;92806.19;2114059;28;20028;-76
2022/12/03 01:35:21;;;;;;;19.17;12.88;;;;;;;-0.16;100.00;92806.81;2121284;27;20031;-76
2022/12/03 01:36:22;;;;;;;18.10;12.23;;;;;;;-0.13;100.00;92808.75;2121843;27;20027;-75
2022/12/03 01:37:24;;;;;;;17.35;12.65;;;;;;;-0.15;100.00;92816.22;2122103;27;20056;-75
2022/12/03 01:38:25;;;;;;;16.83;11.45;;;;;;;-0.11;100.00;92801.25;2122777;27;20031;-75
2022/12/03 01:39:26;;;;;;;18.77;11.48;;;;;;;-0.13;100.00;92806.13;2122617;27;20027;-75
2022/12/03 01:40:27;;;;;;;20.13;12.10;;;;;;;0.01;100.00;92810.03;2122736;27;20094;-76
2022/12/03 01:41:29;;;;;;;15.93;11.32;;;;;;;-0.02;100.00;92807.00;2121301;27;20027;-76
2022/12/03 01:42:35;;;;;;;16.17;10.40;;;;;;;-0.12;100.00;92802.38;2117799;27;20536;-76
2022/12/03 01:43:37;;;;;;;14.52;10.55;;;;;;;-0.17;100.00;92812.44;2122676;27;20031;-76
2022/12/03 01:44:39;;;;;;;15.40;10.55;;;;;;;-0.16;100.00;92811.31;2130600;27;20026;-76
2022/12/03 01:45:40;;;;;;;14.75;11.07;;;;;;;-0.17;100.00;92815.06;2131040;27;20162;-76
2022/12/03 01:46:42;;;;;;;15.63;10.63;;;;;;;-0.26;100.00;92810.06;2130653;27;20030;-76
2022/12/03 01:47:43;;;;;;;15.93;11.20;;;;;;;-0.16;100.00;92817.34;2130448;27;20440;-76
2022/12/03 01:48:45;;;;;;;13.98;10.52;;;;;;;-0.10;100.00;92813.28;2131430;27;20022;-76
2022/12/03 01:49:51;;;;;;;15.07;10.15;;;;;;;-0.12;100.00;92817.38;2131373;27;20031;-75
2022/12/03 01:50:52;;;;;;;13.75;10.18;;;;;;;-0.09;100.00;92819.28;2131499;27;20022;-75
2022/12/03 01:51:54;;;;;;;14.48;10.63;;;;;;;-0.09;100.00;92814.03;2130612;27;20037;-76
2022/12/03 01:52:59;;;;;;;15.25;10.10;;;;;;;-0.03;100.00;92810.00;2124957;27;20033;-76
2022/12/03 01:54:03;;;;;;;14.75;9.93;;;;;;;-0.12;100.00;92812.88;2122228;27;20030;-75
2022/12/03 01:55:10;;;;;;;12.38;9.77;;;;;;;-0.11;100.00;92811.75;2122457;27;20040;-76
2022/12/03 01:56:13;;;;;;;12.93;9.27;;;;;;;-0.21;100.00;92815.03;2122480;27;20441;-75
2022/12/03 01:57:22;;;;;;;13.38;9.80;;;;;;;-0.27;100.00;92819.03;2121940;27;20023;-75
2022/12/03 01:58:27;;;;;;;13.77;10.13;;;;;;;-0.23;100.00;92806.72;2121907;27;20034;-76
2022/12/03 01:59:34;;;;;;;13.52;9.98;;;;;;;-0.35;100.00;92812.97;2122642;27;20035;-76
2022/12/03 02:00:35;;;;;;;13.15;9.93;;;;;;;-0.36;100.00;92808.78;2122540;27;20452;-76
2022/12/03 02:01:36;;;;;;;13.38;10.35;;;;;;;-0.43;100.00;92815.84;2122424;27;20477;-75
2022/12/03 02:02:37;;;;;;;13.25;9.82;;;;;;;-0.50;100.00;92803.34;2122416;27;20028;-76
2022/12/03 02:03:38;;;;;;;14.88;10.40;;;;;;;-0.36;100.00;92815.91;2121734;27;20761;-76
2022/12/03 02:04:39;;;;;;;15.15;9.85;;;;;;;-0.39;100.00;92806.91;2122243;27;20037;-76
2022/12/03 02:05:40;;;;;;;14.18;10.02;;;;;;;-0.38;100.00;92812.91;2122047;27;20473;-76
2022/12/03 02:06:43;;;;;;;16.38;11.27;;;;;;;-0.39;100.00;92809.53;2122449;27;20070;-75
2022/12/03 02:07:44;;;;;;;17.10;11.00;;;;;;;-0.34;100.00;92800.59;2122219;27;20019;-76
2022/12/03 02:08:46;;;;;;;16.10;11.90;;;;;;;-0.30;100.00;92819.78;2122240;27;20445;-75
2022/12/03 02:09:47;;;;;;;16.23;12.30;;;;;;;-0.43;100.00;92810.59;2122784;27;20023;-76
2022/12/03 02:10:48;;;;;;;14.80;11.32;;;;;;;-0.45;100.00;92808.28;2122199;27;20031;-75
2022/12/03 02:11:49;;;;;;;15.38;11.13;;;;;;;-0.38;100.00;92812.91;2122370;27;20062;-75
2022/12/03 02:12:55;;;;;;;15.93;11.98;;;;;;;-0.28;100.00;92810.41;2122651;27;20467;-75
2022/12/03 02:14:02;;;;;;;16.35;11.45;;;;;;;-0.31;100.00;92805.88;2129110;27;20491;-76
2022/12/03 02:17:01;;;;;;;16.45;11.70;;;;;;;-0.38;100.00;92805.78;2130325;27;20615;-78
2022/12/03 02:18:02;;;;;;;15.23;10.68;;;;;;;-0.42;100.00;92812.09;2121018;27;20038;-77
2022/12/03 02:19:09;;;;;;;16.25;11.10;;;;;;;-0.46;100.00;92804.16;2119644;28;20024;-76
2022/12/03 02:20:12;;;;;;;15.90;11.45;;;;;;;-0.52;100.00;92803.72;2105742;28;20025;-78
2022/12/03 02:21:25;;;;;;;16.55;12.20;;;;;;;-0.55;100.00;92807.03;2120800;28;20536;-76
2022/12/03 02:22:35;;;;;;;19.05;12.27;;;;;;;-0.56;100.00;92813.41;2120904;27;20126;-77
2022/12/03 02:24:13;;;;;;;17.75;12.07;;;;;;;-0.53;100.00;92812.69;2120707;28;20035;-76
2022/12/03 02:25:18;;;;;;;16.67;10.75;;;;;;;-0.48;100.00;92816.13;2121748;27;20092;-78
2022/12/03 02:26:19;;;;;;;18.27;10.82;;;;;;;-0.43;100.00;92818.47;2124508;27;20145;-78
2022/12/03 02:27:21;;;;;;;14.02;9.93;;;;;;;-0.47;100.00;92815.78;2123531;27;20028;-76
2022/12/03 02:28:22;;;;;;;14.70;10.45;;;;;;;-0.35;100.00;92818.22;2123102;27;20023;-77
2022/12/03 02:29:23;;;;;;;14.25;9.75;;;;;;;-0.34;100.00;92809.22;2121171;27;20048;-78
2022/12/03 02:30:26;;;;;;;15.60;10.75;;;;;;;-0.43;100.00;92816.59;2121796;27;20027;-78
2022/12/03 02:31:27;;;;;;;13.27;9.65;;;;;;;-0.41;100.00;92816.22;2121870;27;20450;-78
2022/12/03 02:32:28;;;;;;;14.18;10.18;;;;;;;-0.41;100.00;92810.97;2121465;27;20038;-76
2022/12/03 02:33:31;;;;;;;14.10;10.30;;;;;;;-0.35;100.00;92814.81;2120823;27;20529;-75
2022/12/03 02:34:43;;;;;;;13.63;9.80;;;;;;;-0.34;100.00;92808.47;2120443;27;20102;-75
2022/12/03 02:35:44;;;;;;;14.07;9.43;;;;;;;-0.30;100.00;92811.91;2121152;27;20031;-77
2022/12/03 02:36:45;;;;;;;13.63;9.60;;;;;;;-0.41;100.00;92803.84;2121166;28;20030;-77
2022/12/03 02:37:50;;;;;;;14.38;10.05;;;;;;;-0.44;100.00;92806.41;2120549;28;20081;-75
2022/12/03 02:38:51;;;;;;;15.75;10.30;;;;;;;-0.41;100.00;92808.34;2112518;28;20118;-75
2022/12/03 02:39:56;;;;;;;15.93;10.23;;;;;;;-0.58;100.00;92810.34;2111232;28;20027;-75
2022/12/03 02:41:03;;;;;;;16.42;10.45;;;;;;;-0.58;100.00;92806.97;2111927;28;20351;-77
2022/12/03 02:43:24;;;;;;;;;;;;;;;-0.41;100.00;92805.72;2113059;28;20042;-75
2022/12/03 02:44:25;;;;;;;17.20;9.32;;;;;;;-0.48;100.00;92809.03;2113241;28;19911;-76
2022/12/03 02:45:31;;;;;;;14.93;10.23;;;;;;;-0.57;100.00;92803.22;2120784;27;20065;-77
2022/12/03 02:46:32;;;;;;;14.57;10.27;;;;;;;-0.60;100.00;92812.59;2120240;28;20054;-77
2022/12/03 02:47:39;;;;;;;16.50;10.25;;;;;;;-0.69;100.00;92812.06;2120482;28;20533;-76
2022/12/03 02:48:40;;;;;;;14.00;9.77;;;;;;;-0.62;100.00;92808.78;2121018;27;20032;-76
2022/12/03 02:49:42;;;;;;;12.93;9.65;;;;;;;-0.52;100.00;92808.97;2120490;27;20019;-77
2022/12/03 02:50:49;;;;;;;16.05;11.02;;;;;;;-0.57;100.00;92798.78;2120112;28;20035;-77
2022/12/03 02:51:50;;;;;;;13.13;10.43;;;;;;;-0.59;100.00;92802.84;2119880;28;20436;-76
2022/12/03 02:52:53;;;;;;;14.63;10.85;;;;;;;-0.60;100.00;92801.34;2120861;27;20030;-78
2022/12/03 02:53:56;;;;;;;14.70;9.88;;;;;;;-0.58;100.00;92799.09;2120850;27;20035;-77
2022/12/03 02:54:58;;;;;;;15.98;10.50;;;;;;;-0.62;100.00;92809.53;2119906;28;20042;-76
2022/12/03 02:56:01;;;;;;;15.40;10.40;;;;;;;-0.46;100.00;92811.28;2120459;28;20461;-77
2022/12/03 02:57:03;;;;;;;15.85;10.88;;;;;;;-0.39;100.00;92806.13;2121113;27;20065;-77
2022/12/03 02:58:04;;;;;;;14.32;10.30;;;;;;;-0.42;100.00;92807.59;2120509;27;20118;-77
2022/12/03 02:59:05;;;;;;;16.77;10.40;;;;;;;-0.35;100.00;92801.66;2120488;27;20259;-77
2022/12/03 03:00:08;;;;;;;15.70;10.70;;;;;;;-0.48;100.00;92795.88;2120569;27;20027;-77
2022/12/03 03:01:09;;;;;;;15.43;10.48;;;;;;;-0.39;100.00;92803.50;2120938;27;20145;-77
2022/12/03 03:02:14;;;;;;;14.52;10.45;;;;;;;-0.43;100.00;92805.34;2120953;27;20062;-76
2022/12/03 03:03:16;;;;;;;16.35;11.73;;;;;;;-0.49;100.00;92799.59;2120707;27;20369;-77
2022/12/03 03:04:17;;;;;;;14.15;10.55;;;;;;;-0.40;100.00;92800.09;2120444;27;20019;-78
2022/12/03 03:05:20;;;;;;;16.38;11.23;;;;;;;-0.33;100.00;92799.47;2119747;28;20030;-75
2022/12/03 03:06:22;;;;;;;16.13;11.23;;;;;;;-0.42;100.00;92804.22;2113947;28;20028;-78
2022/12/03 03:07:23;;;;;;;14.88;11.35;;;;;;;-0.45;100.00;92805.66;2122089;28;20034;-75
2022/12/03 03:08:25;;;;;;;15.18;10.65;;;;;;;-0.42;100.00;92804.97;2122440;27;20020;-77
2022/12/03 03:09:26;;;;;;;17.13;10.30;;;;;;;-0.30;100.00;92804.00;2120203;27;20433;-78
2022/12/03 03:10:28;;;;;;;14.00;10.77;;;;;;;-0.46;100.00;92804.16;2120560;27;20053;-78
2022/12/03 03:11:30;;;;;;;14.50;11.27;;;;;;;-0.45;100.00;92800.41;2121387;27;20043;-77
2022/12/03 03:12:32;;;;;;;15.40;10.75;;;;;;;-0.41;100.00;92803.09;2120346;28;20076;-79
2022/12/03 03:13:34;;;;;;;14.63;10.75;;;;;;;-0.53;100.00;92799.59;2111935;28;20022;-78
2022/12/03 03:14:35;;;;;;;15.63;10.25;;;;;;;-0.59;100.00;92803.59;2119925;28;20144;-77
2022/12/03 03:15:39;;;;;;;16.33;10.90;;;;;;;-0.52;100.00;92805.59;2119520;28;20090;-79
2022/12/03 03:16:40;;;;;;;14.75;10.45;;;;;;;-0.54;100.00;92800.66;2120455;27;20134;-78
2022/12/03 03:17:41;;;;;;;15.73;10.95;;;;;;;-0.36;100.00;92798.28;2120586;28;20023;-78
2022/12/03 03:18:42;;;;;;;16.10;11.13;;;;;;;-0.37;100.00;92799.41;2120918;27;20043;-77
2022/12/03 03:19:43;;;;;;;15.25;10.60;;;;;;;-0.56;100.00;92796.91;2120697;27;20156;-78
2022/12/03 03:20:44;;;;;;;14.52;10.43;;;;;;;-0.59;100.00;92793.09;2120690;27;20035;-77
2022/12/03 03:21:45;;;;;;;16.60;11.85;;;;;;;-0.52;100.00;92795.84;2119988;28;20066;-78
2022/12/03 03:22:46;;;;;;;14.00;10.57;;;;;;;-0.62;100.00;92787.78;2111227;28;20020;-76
2022/12/03 03:23:47;;;;;;;15.57;11.13;;;;;;;-0.59;100.00;92795.72;2119929;28;20027;-75
2022/12/03 03:24:48;;;;;;;15.15;11.27;;;;;;;-0.55;100.00;92798.41;2120611;27;20454;-76
2022/12/03 03:26:05;;;;;;;16.45;11.63;;;;;;;-0.52;100.00;92789.84;2120567;27;20575;-75
2022/12/03 03:27:06;;;;;;;14.50;10.63;;;;;;;-0.28;100.00;92786.78;2111585;28;20897;-79
2022/12/03 03:28:07;;;;;;;15.57;10.77;;;;;;;-0.31;100.00;92790.13;2107643;28;20115;-75
2022/12/03 03:29:08;;;;;;;16.70;11.30;;;;;;;-0.42;100.00;92794.47;2106156;28;20028;-77
2022/12/03 03:30:10;;;;;;;17.08;11.60;;;;;;;-0.39;100.00;92788.53;2105599;28;20550;-76
2022/12/03 03:31:14;;;;;;;17.80;12.15;;;;;;;-0.46;100.00;92787.66;2097591;28;20039;-78
2022/12/03 03:32:15;;;;;;;17.92;11.30;;;;;;;-0.49;100.00;92793.59;2106102;28;20028;-76
2022/12/03 03:33:17;;;;;;;18.45;11.45;;;;;;;-0.53;100.00;92791.69;2106696;28;20027;-78
2022/12/03 03:34:19;;;;;;;14.93;11.45;;;;;;;-0.64;100.00;92788.16;2106653;28;20042;-76
2022/12/03 03:35:20;;;;;;;16.95;11.25;;;;;;;-0.58;100.00;92789.34;2114212;28;20104;-77
2022/12/03 03:36:22;;;;;;;17.05;11.05;;;;;;;-0.58;100.00;92785.97;2114499;28;20032;-77
2022/12/03 03:37:23;;;;;;;16.98;11.13;;;;;;;-0.55;100.00;92787.91;2106688;28;20080;-78
2022/12/03 03:38:26;;;;;;;19.33;11.38;;;;;;;-0.58;100.00;92791.97;2106573;28;20067;-75
2022/12/03 03:39:27;;;;;;;16.65;11.35;;;;;;;-0.55;100.00;92782.66;2106650;28;20035;-78
2022/12/03 03:40:29;;;;;;;17.45;11.82;;;;;;;-0.49;100.00;92788.34;2106423;28;20036;-76
2022/12/03 03:41:31;;;;;;;17.10;11.23;;;;;;;-0.48;100.00;92787.22;2106143;28;20035;-75
2022/12/03 03:42:34;;;;;;;16.35;11.70;;;;;;;-0.51;100.00;92797.34;2114562;28;20024;-76
2022/12/03 03:43:37;;;;;;;20.02;12.85;;;;;;;-0.65;100.00;92799.00;2115013;28;20408;-78
2022/12/03 03:44:38;;;;;;;16.90;12.25;;;;;;;-0.55;100.00;92796.53;2114929;27;20081;-77
2022/12/03 03:45:39;;;;;;;17.02;11.68;;;;;;;-0.48;100.00;92801.16;2114615;28;20018;-77
2022/12/03 03:46:41;;;;;;;17.33;11.40;;;;;;;-0.58;100.00;92794.59;2114153;28;20020;-77
2022/12/03 03:47:42;;;;;;;20.23;12.07;;;;;;;-0.51;100.00;92789.47;2105658;28;20406;-75
2022/12/03 03:48:44;;;;;;;18.70;12.43;;;;;;;-0.54;100.00;92787.53;2113790;28;20088;-76
2022/12/03 03:49:46;;;;;;;17.48;12.57;;;;;;;-0.48;100.00;92784.63;2114740;28;20106;-75
2022/12/03 03:50:49;;;;;;;17.75;11.75;;;;;;;-0.56;100.00;92789.78;2114077;28;20373;-76
2022/12/03 03:51:50;;;;;;;19.52;11.82;;;;;;;-0.61;100.00;92789.31;2114332;28;20032;-77
2022/12/03 03:52:52;;;;;;;14.02;10.77;;;;;;;-0.45;100.00;92783.91;2114506;28;20103;-75
2022/12/03 03:53:53;;;;;;;16.98;11.82;;;;;;;-0.40;100.00;92794.84;2114963;28;20035;-76
2022/12/03 03:54:54;;;;;;;17.90;12.23;;;;;;;-0.36;100.00;92795.66;2114949;28;20054;-75
2022/12/03 03:55:55;;;;;;;18.67;11.20;;;;;;;-0.41;100.00;92795.22;2113520;28;20365;-76
2022/12/03 03:56:56;;;;;;;17.85;11.45;;;;;;;-0.28;100.00;92788.66;2114631;28;20046;-76
2022/12/03 03:57:57;;;;;;;17.73;12.07;;;;;;;-0.42;100.00;92791.84;2113741;28;20026;-77
2022/12/03 03:59:00;;;;;;;17.90;11.68;;;;;;;-0.32;100.00;92787.84;2114104;28;20031;-76
2022/12/03 04:00:04;;;;;;;16.20;11.88;;;;;;;-0.37;100.00;92781.03;2114663;28;20466;-76
2022/12/03 04:01:05;;;;;;;19.38;12.10;;;;;;;-0.41;100.00;92790.72;2113878;28;20765;-77
2022/12/03 04:02:16;;;;;;;17.35;12.05;;;;;;;-0.39;100.00;92783.25;2113119;28;20050;-76
2022/12/03 04:03:17;;;;;;;18.83;11.90;;;;;;;-0.48;100.00;92776.72;2114624;28;20058;-76
2022/12/03 04:04:21;;;;;;;18.40;12.93;;;;;;;-0.60;100.00;92781.09;2114014;28;20050;-75
2022/12/03 04:05:23;;;;;;;18.20;12.60;;;;;;;-0.53;100.00;92783.81;2114123;28;20035;-77
2022/12/03 04:06:27;;;;;;;19.30;13.07;;;;;;;-0.56;100.00;92775.91;2114769;28;20027;-75
2022/12/03 04:07:28;;;;;;;19.05;13.52;;;;;;;-0.49;100.00;92777.84;2111310;28;20032;-75
2022/12/03 04:08:29;;;;;;;20.25;13.43;;;;;;;-0.59;100.00;92784.47;2105845;28;20035;-75
2022/12/03 04:09:30;;;;;;;21.52;13.95;;;;;;;-0.57;100.00;92783.03;2105951;28;20027;-77
2022/12/03 04:13:11;;;;;;;19.95;14.77;;;;;;;-0.29;100.00;92789.78;2105520;28;20078;-78
2022/12/03 04:14:13;;;;;;;22.10;14.52;;;;;;;-0.39;100.00;92787.75;2105323;28;20082;-75
2022/12/03 04:15:14;;;;;;;19.02;12.80;;;;;;;-0.27;100.00;92787.53;2105977;28;20028;-78
2022/12/03 04:16:15;;;;;;;19.83;13.82;;;;;;;-0.36;100.00;92785.16;2106002;28;20180;-78
2022/12/03 04:17:16;;;;;;;22.20;13.60;;;;;;;-0.37;100.00;92791.53;2106339;28;20088;-78
2022/12/03 04:19:36;;;;;;;18.83;12.48;;;;;;;-0.39;100.00;92790.38;2114503;28;20141;-77
2022/12/03 04:20:37;;;;;;;19.85;12.85;;;;;;;-0.49;100.00;92788.34;2113627;28;20032;-75
2022/12/03 04:22:58;;;;;;;20.38;12.85;;;;;;;-0.40;100.00;92796.72;2113497;28;20398;-75
2022/12/03 04:23:59;;;;;;;21.27;13.80;;;;;;;-0.48;100.00;92787.22;2114275;28;20032;-77
2022/12/03 04:28:59;;;;;;;18.85;13.35;;;;;;;-0.53;100.00;92777.78;2115211;28;20161;-76
2022/12/03 04:30:00;;;;;;;20.52;13.88;;;;;;;-0.51;100.00;92770.34;2114742;28;20024;-78
2022/12/03 04:35:41;;;;;;;20.88;13.82;;;;;;;-0.53;100.00;92769.91;2114988;28;20445;-76
2022/12/03 04:36:21;;;;;;;25.55;14.60;;;;;;;-0.51;100.00;92760.59;2105706;28;20119;-76
2022/12/03 04:37:22;;;;;;;22.23;15.02;;;;;;;-0.58;100.00;92770.97;2105341;28;20042;-77
2022/12/03 04:38:23;;;;;;;22.10;14.95;;;;;;;-0.59;100.00;92761.59;2112122;28;20486;-78
2022/12/03 04:39:24;;;;;;;23.63;15.00;;;;;;;-0.59;100.00;92760.84;2114215;28;20018;-76
2022/12/03 04:41:45;;;;;;;22.42;15.02;;;;;;;-0.56;100.00;92758.28;2114093;28;20089;-77
2022/12/03 04:42:47;;;;;;;24.05;15.38;;;;;;;-0.57;100.00;92756.78;2114215;28;20085;-76
2022/12/03 04:45:07;;;;;;;24.02;15.70;;;;;;;-0.59;100.00;92761.59;2114190;28;20520;-76
2022/12/03 04:46:08;;;;;;;23.20;15.40;;;;;;;-0.60;100.00;92759.34;2114490;28;20357;-78
2022/12/03 04:47:18;;;;;;;27.10;16.08;;;;;;;-0.54;100.00;92755.28;2104805;28;20059;-77
2022/12/03 04:48:19;;;;;;;21.98;14.43;;;;;;;-0.34;100.00;92766.44;2103615;28;21069;-77
2022/12/03 04:49:20;;;;;;;25.35;15.30;;;;;;;-0.45;100.00;92760.28;2105334;28;20036;-76
2022/12/03 04:50:21;;;;;;;22.73;14.70;;;;;;;-0.54;100.00;92766.53;2105505;28;20032;-77
2022/12/03 04:51:22;;;;;;;23.38;14.63;;;;;;;-0.40;100.00;92759.97;2106136;28;20078;-76
2022/12/03 04:52:23;;;;;;;22.25;14.30;;;;;;;-0.39;100.00;92764.13;2105867;28;20024;-76
2022/12/03 04:53:24;;;;;;;19.92;13.10;;;;;;;-0.52;100.00;92764.34;2107131;28;20480;-77
2022/12/03 04:54:26;;;;;;;24.02;14.10;;;;;;;-0.53;100.00;92768.09;2114196;28;20499;-75
2022/12/03 04:55:27;;;;;;;22.05;13.77;;;;;;;-0.58;100.00;92764.97;2114637;28;20114;-76
2022/12/03 04:56:28;;;;;;;22.55;15.23;;;;;;;-0.53;100.00;92768.09;2114339;28;20024;-75
2022/12/03 04:57:29;;;;;;;22.90;13.85;;;;;;;-0.42;100.00;92767.47;2114312;28;20104;-75
2022/12/03 04:58:30;;;;;;;25.17;14.88;;;;;;;-0.27;100.00;92764.66;2113144;28;20109;-78
2022/12/03 04:59:31;;;;;;;21.02;14.48;;;;;;;-0.28;100.00;92773.66;2104964;28;20031;-77
2022/12/03 05:00:32;;;;;;;22.10;14.25;;;;;;;-0.33;100.00;92773.22;2113528;28;20536;-75
2022/12/03 05:01:33;;;;;;;23.75;14.57;;;;;;;-0.38;100.00;92770.88;2114353;28;20031;-74
2022/12/03 05:02:34;;;;;;;19.75;13.07;;;;;;;-0.15;100.00;92768.94;2113662;28;20030;-74
2022/12/03 05:03:35;;;;;;;20.00;13.65;;;;;;;-0.34;100.00;92769.06;2113393;28;20023;-74